createdAt,value
2022-09-23T00:02:07.358Z,25.88
2022-09-23T00:04:57.427Z,25.38
2022-09-23T00:07:47.606Z,21.60
2022-09-23T00:10:40.969Z,21.25
2022-09-23T00:13:31.795Z,24.75
2022-09-23T00:16:29.780Z,21.52
2022-09-23T00:19:19.846Z,31.10
2022-09-23T00:22:10.347Z,25.83
2022-09-23T00:25:04.170Z,23.65
2022-09-23T00:27:54.873Z,21.02
2022-09-23T00:30:46.283Z,18.63
2022-09-23T00:33:36.821Z,23.25
2022-09-23T00:36:28.298Z,19.15
2022-09-23T00:39:19.631Z,17.05
2022-09-23T00:42:17.797Z,15.25
2022-09-23T00:45:12.998Z,16.67
2022-09-23T00:48:07.739Z,17.65
2022-09-23T00:50:58.685Z,14.77
2022-09-23T00:53:51.188Z,20.80
2022-09-23T00:56:41.637Z,15.27
2022-09-23T00:59:31.966Z,15.65
2022-09-23T01:02:25.263Z,18.15
2022-09-23T01:05:16.586Z,15.98
2022-09-23T01:08:06.867Z,12.13
2022-09-23T01:11:09.433Z,16.25
2022-09-23T01:14:12.403Z,15.93
2022-09-23T01:17:09.628Z,16.80
2022-09-23T01:20:10.608Z,19.25
2022-09-23T01:23:19.340Z,22.00
2022-09-23T01:26:29.678Z,25.40
2022-09-23T01:29:38.154Z,21.80
2022-09-23T01:32:47.269Z,24.70
2022-09-23T01:35:57.178Z,19.60
2022-09-23T01:38:55.244Z,21.65
2022-09-23T01:41:55.812Z,24.38
2022-09-23T01:44:53.824Z,23.52
2022-09-23T01:47:57.105Z,22.65
2022-09-23T01:51:00.281Z,24.38
2022-09-23T01:54:26.842Z,24.15
2022-09-23T01:57:47.098Z,22.85
2022-09-23T02:00:42.331Z,19.48
2022-09-23T02:03:48.551Z,18.95
2022-09-23T02:06:44.369Z,18.67
2022-09-23T02:09:39.859Z,17.13
2022-09-23T02:12:32.166Z,16.60
2022-09-23T02:15:27.328Z,17.85
2022-09-23T02:18:24.567Z,19.40
2022-09-23T02:21:15.076Z,10.07
2022-09-23T02:24:17.505Z,11.05
2022-09-23T02:27:33.475Z,11.35
2022-09-23T02:30:28.690Z,13.63
2022-09-23T02:33:41.594Z,10.48
2022-09-23T02:36:52.408Z,10.13
2022-09-23T02:39:49.533Z,12.52
2022-09-23T02:42:50.396Z,10.73
2022-09-23T02:45:40.804Z,11.32
2022-09-23T02:49:00.459Z,9.38
2022-09-23T02:51:51.729Z,7.07
2022-09-23T02:54:43.129Z,9.35
2022-09-23T02:57:33.678Z,10.02
2022-09-23T03:00:25.095Z,8.90
2022-09-23T03:03:41.894Z,5.22
2022-09-23T03:07:25.531Z,6.88
2022-09-23T03:10:23.986Z,7.55
2022-09-23T03:13:43.504Z,11.40
2022-09-23T03:17:06.261Z,10.60
2022-09-23T03:20:09.618Z,5.45
2022-09-23T03:23:05.041Z,5.03
2022-09-23T03:25:57.825Z,7.32
2022-09-23T03:28:48.937Z,6.57
2022-09-23T03:31:44.032Z,8.13
2022-09-23T03:34:36.421Z,8.40
2022-09-23T03:37:56.272Z,11.63
2022-09-23T03:40:49.230Z,9.52
2022-09-23T03:43:42.393Z,13.50
2022-09-23T03:46:36.086Z,11.30
2022-09-23T03:49:29.433Z,9.13
2022-09-23T03:52:20.908Z,8.27
2022-09-23T03:55:12.441Z,6.90
2022-09-23T03:58:04.670Z,5.05
2022-09-23T04:00:56.253Z,6.28
2022-09-23T04:03:48.545Z,5.95
2022-09-23T04:06:39.542Z,9.48
2022-09-23T04:09:31.019Z,9.40
2022-09-23T04:12:21.899Z,10.75
2022-09-23T04:15:13.491Z,12.63
2022-09-23T04:18:03.267Z,16.30
2022-09-23T04:20:53.844Z,15.98
2022-09-23T04:23:44.321Z,14.98
2022-09-23T04:26:36.272Z,16.77
2022-09-23T04:29:28.245Z,17.42
2022-09-23T04:32:18.802Z,19.63
2022-09-23T04:35:10.412Z,28.73
2022-09-23T04:38:02.027Z,26.60
2022-09-23T04:40:54.935Z,26.10
2022-09-23T04:43:46.091Z,25.13
2022-09-23T04:46:37.059Z,29.95
2022-09-23T04:49:27.945Z,44.15
2022-09-23T04:52:18.530Z,35.35
2022-09-23T04:55:11.290Z,28.00
2022-09-23T04:58:03.871Z,30.48
2022-09-23T05:00:54.730Z,28.50
2022-09-23T05:03:46.291Z,24.85
2022-09-23T05:06:37.258Z,24.58
2022-09-23T05:09:32.682Z,20.40
2022-09-23T05:12:23.471Z,10.07
2022-09-23T05:15:17.576Z,11.57
2022-09-23T05:18:11.366Z,8.48
2022-09-23T05:21:03.729Z,10.75
2022-09-23T05:23:58.054Z,11.57
2022-09-23T05:26:48.092Z,5.00
2022-09-23T05:29:39.473Z,10.55
2022-09-23T05:32:30.689Z,12.60
2022-09-23T05:35:20.985Z,12.43
2022-09-23T05:38:11.581Z,14.00
2022-09-23T05:41:03.492Z,13.48
2022-09-23T05:43:54.721Z,7.63
2022-09-23T05:46:45.938Z,13.50
2022-09-23T05:49:58.124Z,10.10
2022-09-23T05:52:48.048Z,7.68
2022-09-23T05:55:39.341Z,9.52
2022-09-23T05:58:30.220Z,12.88
2022-09-23T06:01:28.039Z,11.77
2022-09-23T06:04:19.391Z,10.57
2022-09-23T06:07:10.892Z,13.23
2022-09-23T06:10:01.600Z,10.23
2022-09-23T06:12:51.715Z,11.63
2022-09-23T06:15:42.679Z,15.50
2022-09-23T06:18:33.562Z,12.80
2022-09-23T06:21:27.750Z,21.52
2022-09-23T06:24:20.860Z,13.25
2022-09-23T06:27:12.857Z,19.33
2022-09-23T06:30:06.125Z,27.70
2022-09-23T06:32:58.006Z,14.88
2022-09-23T06:35:57.409Z,11.75
2022-09-23T06:38:50.871Z,11.20
2022-09-23T06:41:41.275Z,21.17
2022-09-23T06:44:34.650Z,15.88
2022-09-23T06:47:29.394Z,8.70
2022-09-23T06:50:20.483Z,8.02
2022-09-23T06:53:11.591Z,9.10
2022-09-23T06:56:03.915Z,11.38
2022-09-23T06:58:56.252Z,15.45
2022-09-23T07:01:47.829Z,14.77
2022-09-23T07:04:38.537Z,14.13
2022-09-23T07:07:34.267Z,11.18
2022-09-23T07:10:25.228Z,10.18
2022-09-23T07:13:16.455Z,21.15
2022-09-23T07:16:07.407Z,16.38
2022-09-23T07:18:57.592Z,18.77
2022-09-23T07:21:47.574Z,14.00
2022-09-23T07:24:38.783Z,18.15
2022-09-23T07:27:29.900Z,19.90
2022-09-23T07:30:25.139Z,10.73
2022-09-23T07:33:29.182Z,13.00
2022-09-23T07:36:22.989Z,12.45
2022-09-23T07:39:14.641Z,13.27
2022-09-23T07:42:06.783Z,18.42
2022-09-23T07:44:58.318Z,17.67
2022-09-23T07:47:48.979Z,17.80
2022-09-23T07:50:43.170Z,13.25
2022-09-23T07:53:33.855Z,10.70
2022-09-23T07:56:28.457Z,8.02
2022-09-23T07:59:20.492Z,14.00
2022-09-23T08:02:12.551Z,9.68
2022-09-23T08:05:02.797Z,13.25
2022-09-23T08:07:52.954Z,7.63
2022-09-23T08:10:44.248Z,13.00
2022-09-23T08:13:35.097Z,13.02
2022-09-23T08:16:25.709Z,12.27
2022-09-23T08:19:16.879Z,10.32
2022-09-23T08:22:07.233Z,12.98
2022-09-23T08:24:57.516Z,22.25
2022-09-23T08:27:48.423Z,12.45
2022-09-23T08:30:39.312Z,23.67
2022-09-23T08:33:30.213Z,18.45
2022-09-23T08:36:20.541Z,15.10
2022-09-23T08:39:12.450Z,19.67
2022-09-23T08:42:18.745Z,9.63
2022-09-23T08:45:20.697Z,18.05
2022-09-23T08:48:16.269Z,7.65
2022-09-23T08:51:10.064Z,10.70
2022-09-23T08:54:03.686Z,9.77
2022-09-23T08:56:54.147Z,8.43
2022-09-23T08:59:46.970Z,4.70
2022-09-23T09:02:41.497Z,10.35
2022-09-23T09:05:35.044Z,11.85
2022-09-23T09:08:28.895Z,6.72
2022-09-23T09:11:20.703Z,9.70
2022-09-23T09:14:32.362Z,8.00
2022-09-23T09:17:40.016Z,6.50
2022-09-23T09:20:40.376Z,6.57
2022-09-23T09:23:53.933Z,13.85
2022-09-23T09:26:44.775Z,13.52
2022-09-23T09:29:40.217Z,10.20
2022-09-23T09:32:48.711Z,12.43
2022-09-23T09:35:44.743Z,7.35
2022-09-23T09:38:35.289Z,8.52
2022-09-23T09:41:33.401Z,18.77
2022-09-23T09:44:50.340Z,17.63
2022-09-23T09:47:53.106Z,12.75
2022-09-23T09:50:43.583Z,9.80
2022-09-23T09:53:37.264Z,11.90
2022-09-23T09:56:36.740Z,11.27
2022-09-23T09:59:30.289Z,24.27
2022-09-23T10:02:36.377Z,28.92
2022-09-23T10:05:36.536Z,21.50
2022-09-23T10:08:39.322Z,16.77
2022-09-23T10:11:32.838Z,20.65
2022-09-23T10:14:23.278Z,18.45
2022-09-23T10:17:36.097Z,18.02
2022-09-23T10:20:27.001Z,14.57
2022-09-23T10:23:29.140Z,13.50
2022-09-23T10:26:20.440Z,13.77
2022-09-23T10:29:35.199Z,14.65
2022-09-23T10:32:28.848Z,13.10
2022-09-23T10:35:25.918Z,15.45
2022-09-23T10:38:17.159Z,21.45
2022-09-23T10:41:57.339Z,13.25
2022-09-23T10:45:08.759Z,15.40
2022-09-23T10:48:17.090Z,26.23
2022-09-23T10:51:29.054Z,12.45
2022-09-23T10:54:42.139Z,12.02
2022-09-23T10:57:48.075Z,17.27
2022-09-23T11:00:48.346Z,17.42
2022-09-23T11:03:47.822Z,21.08
2022-09-23T11:06:46.867Z,14.98
2022-09-23T11:10:23.219Z,17.55
2022-09-23T11:13:54.413Z,18.23
2022-09-23T11:16:47.979Z,12.55
2022-09-23T11:19:57.397Z,18.27
2022-09-23T11:23:26.623Z,11.30
2022-09-23T11:26:50.244Z,11.95
2022-09-23T11:29:55.404Z,12.98
2022-09-23T11:33:07.073Z,13.32
2022-09-23T11:36:07.148Z,15.60
2022-09-23T11:38:59.577Z,15.48
2022-09-23T11:41:56.923Z,15.93
2022-09-23T11:44:51.361Z,18.08
2022-09-23T11:47:49.793Z,20.52
2022-09-23T11:50:40.590Z,22.80
2022-09-23T11:53:43.018Z,22.83
2022-09-23T11:56:45.045Z,27.55
2022-09-23T11:59:41.843Z,22.98
2022-09-23T12:02:35.685Z,29.08
2022-09-23T12:05:29.155Z,19.13
2022-09-23T12:08:20.194Z,17.38
2022-09-23T12:11:32.730Z,16.88
2022-09-23T12:14:51.619Z,11.32
2022-09-23T12:17:45.228Z,10.43
2022-09-23T12:21:00.986Z,10.65
2022-09-23T12:24:04.339Z,10.52
2022-09-23T12:27:01.057Z,7.97
2022-09-23T12:29:54.767Z,11.43
2022-09-23T12:32:46.988Z,10.30
2022-09-23T12:35:42.872Z,13.07
2022-09-23T12:38:43.862Z,14.45
2022-09-23T12:41:42.913Z,12.23
2022-09-23T12:44:38.256Z,13.82
2022-09-23T12:47:40.429Z,15.13
2022-09-23T12:50:55.083Z,12.90
2022-09-23T12:53:57.683Z,12.77
2022-09-23T12:56:57.482Z,15.63
2022-09-23T12:59:55.174Z,14.27
2022-09-23T13:03:09.419Z,13.80
2022-09-23T13:06:21.667Z,15.60
2022-09-23T13:09:34.294Z,11.18
2022-09-23T13:12:41.147Z,12.63
2022-09-23T13:15:38.895Z,11.82
2022-09-23T13:18:57.311Z,13.45
2022-09-23T13:21:48.061Z,13.45
2022-09-23T13:24:55.858Z,13.35
2022-09-23T13:27:52.214Z,21.77
2022-09-23T13:30:53.577Z,17.92
2022-09-23T13:33:44.955Z,14.82
2022-09-23T13:36:48.965Z,14.25
2022-09-23T13:39:42.002Z,13.70
2022-09-23T13:42:36.035Z,12.70
2022-09-23T13:45:28.448Z,12.88
2022-09-23T13:48:19.352Z,16.73
2022-09-23T13:51:13.220Z,16.08
2022-09-23T13:54:05.795Z,16.20
2022-09-23T13:56:57.116Z,15.30
2022-09-23T13:59:47.855Z,18.92
2022-09-23T14:02:44.912Z,17.15
2022-09-23T14:05:37.865Z,16.23
2022-09-23T14:08:30.731Z,12.52
2022-09-23T14:11:22.090Z,14.52
2022-09-23T14:14:20.150Z,12.02
2022-09-23T14:17:14.231Z,16.95
2022-09-23T14:20:05.047Z,17.00
2022-09-23T14:23:12.026Z,14.50
2022-09-23T14:26:04.430Z,15.32
2022-09-23T14:28:54.954Z,16.77
2022-09-23T14:31:58.217Z,13.60
2022-09-23T14:34:51.568Z,17.27
2022-09-23T14:38:02.491Z,16.60
2022-09-23T14:40:53.639Z,14.13
2022-09-23T14:44:07.850Z,14.82
2022-09-23T14:47:00.593Z,18.70
2022-09-23T14:50:11.769Z,16.05
2022-09-23T14:53:02.229Z,18.25
2022-09-23T14:56:10.657Z,15.95
2022-09-23T14:59:02.365Z,16.20
2022-09-23T15:01:52.862Z,13.40
2022-09-23T15:04:44.099Z,13.45
2022-09-23T15:07:35.236Z,12.52
2022-09-23T15:10:30.634Z,16.52
2022-09-23T15:13:32.863Z,14.60
2022-09-23T15:16:30.580Z,17.80
2022-09-23T15:19:23.025Z,14.50
2022-09-23T15:22:14.458Z,14.02
2022-09-23T15:25:22.397Z,13.73
2022-09-23T15:28:12.858Z,16.08
2022-09-23T15:31:04.617Z,15.68
2022-09-23T15:34:03.460Z,15.50
2022-09-23T15:36:53.798Z,13.90
2022-09-23T15:39:44.358Z,13.75
2022-09-23T15:42:34.949Z,14.32
2022-09-23T15:45:37.389Z,16.42
2022-09-23T15:48:34.011Z,14.30
2022-09-23T15:51:27.998Z,16.55
2022-09-23T15:54:18.537Z,19.02
2022-09-23T15:57:10.691Z,17.35
2022-09-23T16:00:01.033Z,17.25
2022-09-23T16:03:02.555Z,21.05
2022-09-23T16:05:53.221Z,24.30
2022-09-23T16:08:45.500Z,25.48
2022-09-23T16:11:37.414Z,22.60
2022-09-23T16:14:27.940Z,24.52
2022-09-23T16:17:18.542Z,26.38
2022-09-23T16:20:10.041Z,27.65
2022-09-23T16:23:07.923Z,23.85
2022-09-23T16:25:59.333Z,23.95
2022-09-23T16:28:51.954Z,23.48
2022-09-23T16:31:42.746Z,26.63
2022-09-23T16:34:36.125Z,25.48
2022-09-23T16:37:26.402Z,19.02
2022-09-23T16:40:22.089Z,19.63
2022-09-23T16:43:13.202Z,18.30
2022-09-23T16:46:03.584Z,21.48
2022-09-23T16:48:53.465Z,17.75
2022-09-23T16:51:43.451Z,22.75
2022-09-23T16:54:33.564Z,15.18
2022-09-23T16:57:23.879Z,19.73
2022-09-23T17:00:35.222Z,17.50
2022-09-23T17:03:43.570Z,16.92
2022-09-23T17:06:33.081Z,16.75
2022-09-23T17:09:28.854Z,17.13
2022-09-23T17:12:36.358Z,16.10
2022-09-23T17:15:26.592Z,15.77
2022-09-23T17:18:19.532Z,16.40
2022-09-23T17:21:10.335Z,15.88
2022-09-23T17:24:00.441Z,13.32
2022-09-23T17:26:52.976Z,17.65
2022-09-23T17:29:46.197Z,14.43
2022-09-23T17:32:39.020Z,16.63
2022-09-23T17:35:29.687Z,14.63
2022-09-23T17:38:19.526Z,19.38
2022-09-23T17:41:10.740Z,22.45
2022-09-23T17:44:02.046Z,21.92
2022-09-23T17:46:52.588Z,22.95
2022-09-23T17:49:44.370Z,28.75
2022-09-23T17:52:34.631Z,32.72
2022-09-23T17:55:29.069Z,28.15
2022-09-23T17:58:20.386Z,31.45
2022-09-23T18:01:18.922Z,34.30
2022-09-23T18:04:09.175Z,42.78
2022-09-23T18:06:59.729Z,36.08
2022-09-23T18:09:49.660Z,40.42
2022-09-23T18:12:39.581Z,33.20
2022-09-23T18:15:34.601Z,28.30
2022-09-23T18:18:25.143Z,22.52
2022-09-23T18:21:15.248Z,34.97
2022-09-23T18:27:18.693Z,26.10
2022-09-23T18:30:09.268Z,24.95
2022-09-23T18:33:00.241Z,25.83
2022-09-23T18:35:50.037Z,24.33
2022-09-23T18:38:42.307Z,23.80
2022-09-23T18:41:33.315Z,21.73
2022-09-23T18:44:25.050Z,26.30
2022-09-23T18:47:37.226Z,21.58
2022-09-23T18:50:44.438Z,21.23
2022-09-23T18:53:34.453Z,19.55
2022-09-23T18:56:24.515Z,19.45
2022-09-23T18:59:22.660Z,24.67
2022-09-23T19:02:16.834Z,25.80
2022-09-23T19:05:14.845Z,25.20
2022-09-23T19:08:05.469Z,32.08
2022-09-23T19:11:00.535Z,29.70
2022-09-23T19:13:56.446Z,28.35
2022-09-23T19:16:46.575Z,26.20
2022-09-23T19:19:37.222Z,27.75
2022-09-23T19:22:27.689Z,25.13
2022-09-23T19:25:18.885Z,26.02
2022-09-23T19:28:09.854Z,18.50
2022-09-23T19:31:00.516Z,23.08
2022-09-23T19:34:01.505Z,22.88
2022-09-23T19:36:53.104Z,26.67
2022-09-23T19:39:43.865Z,20.08
2022-09-23T19:42:34.429Z,24.95
2022-09-23T19:45:24.411Z,24.10
2022-09-23T19:48:14.558Z,21.23
2022-09-23T19:51:05.270Z,23.85
2022-09-23T19:53:55.685Z,21.88
2022-09-23T19:56:46.378Z,24.88
2022-09-23T19:59:36.858Z,24.20
2022-09-23T20:02:28.326Z,28.48
2022-09-23T20:05:21.849Z,28.33
2022-09-23T20:08:11.875Z,23.75
2022-09-23T20:11:10.141Z,24.20
2022-09-23T20:14:05.231Z,27.35
2022-09-23T20:16:54.804Z,27.95
2022-09-23T20:19:46.054Z,28.08
2022-09-23T20:22:36.472Z,28.02
2022-09-23T20:25:26.733Z,32.53
2022-09-23T20:28:17.890Z,27.25
2022-09-23T20:31:08.471Z,24.83
2022-09-23T20:34:03.116Z,26.20
2022-09-23T20:36:53.282Z,30.60
2022-09-23T20:39:45.259Z,30.60
2022-09-23T20:42:36.601Z,36.17
2022-09-23T20:45:28.923Z,33.72
2022-09-23T20:48:19.683Z,24.13
2022-09-23T20:51:12.842Z,26.15
2022-09-23T20:54:03.603Z,28.02
2022-09-23T20:56:54.956Z,34.30
2022-09-23T20:59:48.549Z,29.83
2022-09-23T21:02:38.710Z,30.05
2022-09-23T21:05:28.776Z,30.90
2022-09-23T21:08:18.821Z,28.33
2022-09-23T21:11:14.618Z,28.65
2022-09-23T21:14:05.163Z,26.67
2022-09-23T21:16:58.733Z,31.83
2022-09-23T21:19:48.778Z,26.55
2022-09-23T21:22:38.876Z,24.98
2022-09-23T21:25:29.752Z,26.90
2022-09-23T21:28:20.921Z,32.70
2022-09-23T21:31:16.571Z,30.40
2022-09-23T21:34:09.065Z,28.98
2022-09-23T21:36:59.482Z,31.40
2022-09-23T21:40:09.107Z,34.50
2022-09-23T21:43:02.895Z,27.45
2022-09-23T21:46:03.729Z,29.92
2022-09-23T21:48:56.532Z,34.30
2022-09-23T21:51:46.389Z,28.80
2022-09-23T21:54:37.596Z,37.63
2022-09-23T21:57:28.230Z,38.22
2022-09-23T22:00:19.407Z,35.53
2022-09-23T22:03:13.435Z,32.70
2022-09-23T22:06:15.382Z,37.65
2022-09-23T22:09:12.078Z,32.65
2022-09-23T22:12:13.100Z,38.55
2022-09-23T22:15:06.296Z,42.03
2022-09-23T22:17:56.706Z,38.90
2022-09-23T22:20:48.436Z,35.80
2022-09-23T22:23:40.998Z,36.72
2022-09-23T22:26:43.646Z,35.47
2022-09-23T22:29:52.070Z,43.35
2022-09-23T22:32:42.469Z,42.10
2022-09-23T22:35:32.024Z,45.20
2022-09-23T22:38:22.101Z,41.92
2022-09-23T22:41:16.662Z,46.22
2022-09-23T22:44:07.677Z,43.90
2022-09-23T22:47:00.179Z,46.20
2022-09-23T22:49:50.777Z,51.28
2022-09-23T22:52:40.930Z,50.08
2022-09-23T22:55:31.437Z,55.95
2022-09-23T22:58:32.382Z,49.45
2022-09-23T23:01:25.108Z,48.58
2022-09-23T23:04:16.231Z,53.75
2022-09-23T23:07:08.024Z,51.17
2022-09-23T23:10:00.203Z,53.80
2022-09-23T23:12:53.598Z,53.97
2022-09-23T23:15:48.315Z,47.50
2022-09-23T23:18:43.747Z,46.38
2022-09-23T23:21:35.375Z,44.65
2022-09-23T23:24:26.766Z,51.53
2022-09-23T23:27:17.816Z,46.55
2022-09-23T23:30:09.779Z,47.35
2022-09-23T23:33:00.417Z,47.08
2022-09-23T23:35:53.813Z,46.08
2022-09-23T23:38:46.461Z,44.28
2022-09-23T23:41:37.150Z,36.63
2022-09-23T23:44:31.018Z,36.63
2022-09-23T23:47:22.800Z,34.47
2022-09-23T23:50:14.623Z,34.78
2022-09-23T23:53:06.864Z,33.70
2022-09-23T23:55:59.351Z,38.22
2022-09-23T23:58:49.834Z,38.30
